Time;durP1;ratioP1;P1;durP2;ratioP2;P2;SDS_P1;SDS_P2;PMS_P1;PMS_P2;Temp;Humidity;BMP_temperature;BMP_pressure;BME280_temperature;BME280_humidity;BME280_pressure;Samples;Min_cycle;Max_cycle;Signal;HPM_P1;HPM_P2
2022/12/25 00:00:14;;;;;;;91.50;38.73;;;;;;;3.85;100.00;100789.37;5089532;55;1143008;-70
2022/12/25 00:05:21;;;;;;;91.63;39.00;;;;;;;3.86;100.00;100789.77;5083891;55;1142936;-69
2022/12/25 00:10:29;;;;;;;95.57;38.77;;;;;;;3.86;100.00;100778.45;5054486;56;1140909;-66
2022/12/25 00:15:34;;;;;;;83.82;34.88;;;;;;;3.86;100.00;100792.38;5135929;55;1143021;-69
2022/12/25 00:20:40;;;;;;;85.03;36.75;;;;;;;3.86;100.00;100799.37;5097198;55;1143040;-65
2022/12/25 00:25:46;;;;;;;87.63;37.33;;;;;;;3.88;100.00;100802.78;5100869;55;1143127;-66
2022/12/25 00:30:52;;;;;;;82.10;36.53;;;;;;;3.92;100.00;100809.58;5030743;55;1247036;-65
2022/12/25 00:35:59;;;;;;;88.72;39.65;;;;;;;3.96;100.00;100808.98;5058122;56;1236921;-66
2022/12/25 00:41:14;;;;;;;89.73;38.87;;;;;;;4.01;100.00;100810.45;5036555;56;1250629;-66
2022/12/25 00:46:20;;;;;;;90.27;40.57;;;;;;;4.06;100.00;100814.17;5072395;55;1249118;-67
2022/12/25 00:51:26;;;;;;;103.53;41.20;;;;;;;4.12;100.00;100816.06;5142533;55;1142897;-71
2022/12/25 00:56:32;;;;;;;101.90;45.60;;;;;;;4.15;100.00;100820.28;5118065;55;1261862;-70
2022/12/25 01:01:39;;;;;;;98.45;40.17;;;;;;;4.20;100.00;100828.78;5138823;55;1261545;-67
2022/12/25 01:06:44;;;;;;;100.50;42.33;;;;;;;4.24;100.00;100831.66;5109692;56;1261765;-67
2022/12/25 01:11:50;;;;;;;108.97;46.03;;;;;;;4.28;100.00;100835.80;5069182;57;1261031;-68
2022/12/25 01:16:56;;;;;;;105.23;41.43;;;;;;;4.31;100.00;100842.67;5069178;56;1261130;-70
2022/12/25 01:22:03;;;;;;;108.80;47.73;;;;;;;4.35;100.00;100845.09;5099403;56;1262309;-67
2022/12/25 01:27:09;;;;;;;93.53;40.53;;;;;;;4.41;100.00;100838.27;5141761;56;1260869;-70
2022/12/25 01:32:15;;;;;;;98.90;42.20;;;;;;;4.49;100.00;100839.20;5098667;56;1143202;-66
2022/12/25 01:37:21;;;;;;;95.15;40.78;;;;;;;4.50;100.00;100843.06;5089099;56;1143172;-71
2022/12/25 01:42:26;;;;;;;101.60;43.70;;;;;;;4.55;100.00;100841.08;5121500;56;1142802;-67
2022/12/25 01:47:32;;;;;;;88.73;38.67;;;;;;;4.57;100.00;100843.63;5080723;56;1145081;-70
2022/12/25 01:52:38;;;;;;;87.97;37.47;;;;;;;4.58;100.00;100854.50;5071012;56;1143030;-67
2022/12/25 01:57:46;;;;;;;82.37;34.20;;;;;;;4.59;100.00;100854.40;5090763;57;1143284;-68
2022/12/25 02:02:52;;;;;;;91.03;33.57;;;;;;;4.59;100.00;100868.80;5028799;56;1143190;-64
2022/12/25 02:08:09;;;;;;;72.47;32.43;;;;;;;4.60;100.00;100882.75;5041599;56;1256137;-69
2022/12/25 02:13:18;;;;;;;82.70;34.80;;;;;;;4.57;100.00;100885.08;5125110;55;1197763;-66
2022/12/25 02:18:35;;;;;;;96.00;34.93;;;;;;;4.58;100.00;100876.77;5177138;55;1142806;-66
2022/12/25 02:24:01;;;;;;;83.85;34.80;;;;;;;4.63;100.00;100880.45;5127531;56;1237946;-69
2022/12/25 02:29:27;;;;;;;75.20;33.23;;;;;;;4.65;100.00;100881.23;5041236;55;1144229;-66
2022/12/25 02:34:38;;;;;;;75.50;31.43;;;;;;;4.63;100.00;100887.85;5074770;55;1143027;-67
2022/12/25 02:40:12;;;;;;;72.07;32.67;;;;;;;4.64;100.00;100893.95;5044465;56;1142891;-69
2022/12/25 03:07:10;;;;;;;73.50;32.73;;;;;;;5.02;100.00;100885.57;5071084;56;1142863;-67
2022/12/25 03:12:32;;;;;;;81.50;35.00;;;;;;;5.11;100.00;100884.65;5071178;56;1142922;-67
2022/12/25 03:17:38;;;;;;;78.00;34.63;;;;;;;5.15;100.00;100894.07;5071318;56;1142898;-70
2022/12/25 03:28:06;;;;;;;74.04;35.24;;;;;;;5.15;100.00;100903.70;5081541;56;1142892;-68
2022/12/25 03:33:26;;;;;;;74.15;32.15;;;;;;;5.26;100.00;100911.42;5029816;56;1142975;-69
2022/12/25 04:38:01;;;;;;;60.33;24.43;;;;;;;5.30;100.00;100929.17;5033723;57;1143026;-67
2022/12/25 04:43:07;;;;;;;84.53;24.43;;;;;;;5.27;100.00;100934.56;5004614;57;1145437;-65
2022/12/25 04:48:12;;;;;;;49.08;22.32;;;;;;;5.21;100.00;100941.41;5017035;56;1140894;-67
2022/12/25 04:53:19;;;;;;;53.63;23.87;;;;;;;5.25;100.00;100945.59;5044037;57;1142804;-64
2022/12/25 04:58:25;;;;;;;42.33;22.90;;;;;;;5.24;100.00;100946.51;5024435;57;1142892;-66
2022/12/25 05:03:32;;;;;;;63.53;25.07;;;;;;;5.25;100.00;100948.20;5024070;57;1143001;-65
2022/12/25 05:08:38;;;;;;;72.20;32.80;;;;;;;5.32;100.00;100944.84;5087420;56;1143150;-67
2022/12/25 05:13:44;;;;;;;65.90;25.83;;;;;;;5.37;100.00;100947.60;5121861;56;1142898;-69
2022/12/25 05:18:51;;;;;;;64.05;24.55;;;;;;;5.41;100.00;100946.53;5121837;56;1142943;-68
2022/12/25 05:23:57;;;;;;;65.83;23.07;;;;;;;5.39;100.00;100955.40;5109821;56;1142843;-66
2022/12/25 05:29:04;;;;;;;56.47;23.43;;;;;;;5.41;100.00;100954.41;5033971;56;1142966;-67
2022/12/25 05:34:10;;;;;;;69.70;29.73;;;;;;;5.41;100.00;100945.69;5021137;56;1143122;-70
2022/12/25 05:39:16;;;;;;;71.30;23.35;;;;;;;5.45;100.00;100972.16;5108049;56;1143182;-69
2022/12/25 05:44:22;;;;;;;59.83;23.55;;;;;;;5.47;100.00;100973.79;5118722;56;1143047;-67
2022/12/25 05:49:28;;;;;;;49.00;19.33;;;;;;;5.48;100.00;100974.64;5028204;55;1143234;-69
2022/12/25 05:54:34;;;;;;;50.60;18.47;;;;;;;5.43;100.00;100988.43;5031646;56;1142932;-65
2022/12/25 05:59:40;;;;;;;44.33;17.00;;;;;;;5.40;100.00;101003.85;5008086;56;1142949;-66
2022/12/25 06:04:48;;;;;;;29.40;15.17;;;;;;;5.37;100.00;101007.08;5014181;56;1143020;-68
2022/12/25 06:09:54;;;;;;;38.83;16.57;;;;;;;5.33;100.00;101022.59;5068817;55;1143081;-65
2022/12/25 06:14:59;;;;;;;31.80;16.32;;;;;;;5.30;100.00;101028.38;5043952;56;1143018;-69
2022/12/25 06:20:07;;;;;;;39.53;16.57;;;;;;;5.29;100.00;101035.00;5044047;56;1143126;-70
2022/12/25 06:25:13;;;;;;;32.33;15.43;;;;;;;5.29;100.00;101038.47;5098332;55;1143101;-69
2022/12/25 06:30:18;;;;;;;25.50;12.63;;;;;;;5.32;100.00;101047.13;5205119;55;1142858;-69
2022/12/25 06:35:24;;;;;;;34.90;16.07;;;;;;;5.33;100.00;101050.98;5141845;55;1143011;-64
2022/12/25 06:40:31;;;;;;;31.37;16.37;;;;;;;5.36;100.00;101054.75;5130092;55;1142956;-66
2022/12/25 06:45:37;;;;;;;36.07;16.57;;;;;;;5.38;100.00;101054.22;5117931;56;1143018;-68
2022/12/25 06:50:45;;;;;;;29.20;15.40;;;;;;;5.42;100.00;101072.83;5097658;56;1143262;-69
2022/12/25 06:55:51;;;;;;;30.90;15.10;;;;;;;5.47;100.00;101087.05;5097665;56;1143085;-70
2022/12/25 07:00:57;;;;;;;33.43;15.50;;;;;;;5.49;100.00;101087.38;5117762;56;1142906;-64
2022/12/25 07:06:03;;;;;;;28.37;13.70;;;;;;;5.52;100.00;101083.27;5097897;56;1142860;-66
2022/12/25 07:11:09;;;;;;;28.62;14.78;;;;;;;5.56;100.00;101078.73;5185089;55;1142999;-66
2022/12/25 07:16:15;;;;;;;26.20;14.93;;;;;;;5.59;100.00;101097.80;5170721;55;1143042;-70
2022/12/25 07:21:22;;;;;;;32.60;12.37;;;;;;;5.62;100.00;101106.00;5206455;55;1143095;-69
2022/12/25 07:26:27;;;;;;;27.97;13.20;;;;;;;5.64;100.00;101098.91;5099411;56;1143072;-66
2022/12/25 07:31:33;;;;;;;34.93;13.70;;;;;;;5.68;100.00;101099.13;5092457;56;1144799;-68
2022/12/25 07:36:39;;;;;;;28.50;14.07;;;;;;;5.70;100.00;101098.59;5119669;56;1142853;-66
2022/12/25 07:41:45;;;;;;;26.67;12.83;;;;;;;5.72;100.00;101092.81;5014987;57;1143044;-66
2022/12/25 07:46:52;;;;;;;29.35;12.65;;;;;;;5.79;100.00;101092.92;5060969;56;1142933;-68
2022/12/25 07:51:59;;;;;;;35.90;14.37;;;;;;;5.83;100.00;101082.64;5120464;56;1142981;-68
2022/12/25 07:57:05;;;;;;;29.43;12.10;;;;;;;5.84;100.00;101083.48;5101569;56;1143114;-68
2022/12/25 08:02:12;;;;;;;31.30;13.45;;;;;;;5.91;100.00;101094.97;5102436;56;1151248;-70
2022/12/25 08:07:17;;;;;;;34.27;13.83;;;;;;;5.92;100.00;101099.30;5125649;56;1142970;-66
2022/12/25 08:12:23;;;;;;;28.67;14.00;;;;;;;5.95;100.00;101104.87;5098900;56;1142974;-66
2022/12/25 08:17:29;;;;;;;22.63;12.47;;;;;;;5.98;100.00;101112.57;5010953;57;1142864;-67
2022/12/25 08:22:35;;;;;;;21.93;11.50;;;;;;;5.96;100.00;101118.35;5052512;57;1143074;-68
2022/12/25 08:27:41;;;;;;;23.27;10.80;;;;;;;5.93;100.00;101119.38;5032546;57;1143110;-67
2022/12/25 08:32:46;;;;;;;23.13;12.50;;;;;;;5.90;100.00;101135.27;5010975;57;1143101;-65
2022/12/25 08:37:52;;;;;;;25.70;14.20;;;;;;;5.87;100.00;101132.76;5051182;57;1142907;-65
2022/12/25 08:42:58;;;;;;;22.37;11.83;;;;;;;5.88;100.00;101139.74;4994720;57;1143044;-67
2022/12/25 08:48:04;;;;;;;21.13;10.30;;;;;;;5.90;100.00;101140.98;4939290;57;1142934;-68
2022/12/25 08:53:11;;;;;;;27.16;13.72;;;;;;;5.88;100.00;101152.87;4915590;57;1143043;-67
2022/12/25 08:58:17;;;;;;;27.65;12.85;;;;;;;5.85;100.00;101158.69;4980495;57;1142978;-66
2022/12/25 09:03:24;;;;;;;23.60;12.30;;;;;;;5.88;100.00;101159.86;4885249;57;1143143;-68
2022/12/25 09:08:30;;;;;;;18.27;10.60;;;;;;;5.90;100.00;101165.92;4905993;57;1143045;-65
2022/12/25 09:13:36;;;;;;;62.13;29.83;;;;;;;5.90;100.00;101175.11;4953705;58;1143003;-69
2022/12/25 09:18:42;;;;;;;26.47;13.73;;;;;;;5.89;100.00;101174.72;5009548;56;1142965;-70
2022/12/25 09:23:48;;;;;;;31.70;19.63;;;;;;;5.92;100.00;101164.08;5059988;56;1142857;-71
2022/12/25 09:28:54;;;;;;;27.37;15.00;;;;;;;5.92;100.00;101165.39;5109638;55;1143136;-64
2022/12/25 09:34:00;;;;;;;17.97;10.37;;;;;;;5.91;100.00;101166.31;5124230;55;1142877;-66
2022/12/25 09:39:05;;;;;;;18.23;9.83;;;;;;;5.91;100.00;101175.50;5184707;55;1143111;-68
2022/12/25 09:44:19;;;;;;;68.75;35.05;;;;;;;5.89;100.00;101179.97;5173106;55;1140868;-68
2022/12/25 09:49:59;;;;;;;24.67;15.07;;;;;;;5.91;100.00;101178.12;5194606;55;1143126;-67
2022/12/25 09:55:18;;;;;;;21.20;11.63;;;;;;;5.93;100.00;101169.72;5184476;55;1142810;-67
2022/12/25 10:00:42;;;;;;;25.13;11.97;;;;;;;5.95;100.00;101166.11;5177099;55;1143028;-67
2022/12/25 10:05:59;;;;;;;25.67;13.10;;;;;;;5.98;100.00;101165.93;5059618;56;1142939;-69
2022/12/25 10:11:44;;;;;;;19.23;10.47;;;;;;;5.98;100.00;101165.93;5064548;56;1143139;-69
2022/12/25 10:17:06;;;;;;;42.10;23.10;;;;;;;5.96;100.00;101166.92;5080816;55;1142980;-69
2022/12/25 10:22:26;;;;;;;22.07;11.25;;;;;;;5.95;100.00;101170.50;5060351;56;1143045;-68
2022/12/25 10:27:42;;;;;;;18.90;10.37;;;;;;;5.98;100.00;101166.39;5107794;56;1142962;-67
2022/12/25 10:32:49;;;;;;;20.60;10.33;;;;;;;6.00;100.00;101160.61;5127335;55;1142817;-66
2022/12/25 10:38:18;;;;;;;25.27;10.80;;;;;;;6.00;100.00;101158.84;4986955;57;1143038;-65
2022/12/25 10:43:48;;;;;;;31.63;11.73;;;;;;;6.03;100.00;101158.30;5023637;56;1143034;-65
2022/12/25 10:48:58;;;;;;;16.37;9.30;;;;;;;6.03;100.00;101155.67;5125592;55;1142774;-66
2022/12/25 10:54:26;;;;;;;27.95;12.58;;;;;;;6.04;100.00;101139.85;5089345;55;1140994;-66
2022/12/25 10:59:44;;;;;;;27.80;11.57;;;;;;;6.09;100.00;101130.45;5064550;56;1143060;-65
2022/12/25 11:04:51;;;;;;;52.33;22.00;;;;;;;6.19;100.00;101129.05;5066198;55;1143233;-65
2022/12/25 11:10:07;;;;;;;28.63;15.93;;;;;;;6.26;100.00;101133.91;5072311;56;1142975;-66
2022/12/25 11:15:40;;;;;;;49.13;24.45;;;;;;;6.30;100.00;101131.98;5128913;55;1143028;-67
2022/12/25 11:20:58;;;;;;;51.60;27.07;;;;;;;6.31;100.00;101133.69;5056441;55;1142992;-63
2022/12/25 11:26:10;;;;;;;49.87;23.87;;;;;;;6.35;100.00;101138.72;5072417;56;1142919;-65
2022/12/25 11:31:31;;;;;;;27.00;12.97;;;;;;;6.36;100.00;101148.77;5031750;56;1143021;-66
2022/12/25 11:36:49;;;;;;;26.17;14.10;;;;;;;6.30;100.00;101150.38;5030290;57;1143178;-66
2022/12/25 11:42:26;;;;;;;30.87;14.33;;;;;;;6.27;100.00;101146.58;5028309;56;1143087;-67
2022/12/25 11:47:45;;;;;;;46.70;22.87;;;;;;;6.25;100.00;101140.58;5078075;56;1142973;-69
2022/12/25 11:52:54;;;;;;;27.77;14.57;;;;;;;6.27;100.00;101136.92;5072969;55;1142985;-67
2022/12/25 11:58:07;;;;;;;41.37;19.30;;;;;;;6.26;100.00;101134.41;5131896;55;1143116;-64
2022/12/25 12:03:29;;;;;;;62.27;31.50;;;;;;;6.33;100.00;101141.88;5120689;55;1253864;-66
2022/12/25 12:08:36;;;;;;;61.73;28.53;;;;;;;6.37;100.00;101139.96;5116867;55;1142922;-68
2022/12/25 12:14:18;;;;;;;98.47;36.90;;;;;;;6.44;100.00;101131.29;5142266;55;1143109;-70
2022/12/25 12:19:33;;;;;;;63.50;25.72;;;;;;;6.47;100.00;101137.25;5139020;55;1143057;-68
2022/12/25 12:24:42;;;;;;;29.20;18.03;;;;;;;6.48;100.00;101131.06;5142059;55;1143020;-68
2022/12/25 12:29:52;;;;;;;66.77;29.53;;;;;;;6.47;100.00;101131.98;5098694;55;1143000;-67
2022/12/25 12:34:58;;;;;;;74.33;43.23;;;;;;;6.47;100.00;101133.77;5049586;56;1142880;-67
2022/12/25 12:40:06;;;;;;;45.30;23.20;;;;;;;6.46;100.00;101130.75;5100780;55;1142943;-65
2022/12/25 12:45:19;;;;;;;39.87;19.97;;;;;;;6.42;100.00;101129.20;5079254;55;1142927;-68
2022/12/25 12:50:40;;;;;;;40.17;23.20;;;;;;;6.37;100.00;101125.52;4828921;58;1143098;-66
2022/12/25 12:55:46;;;;;;;41.37;21.53;;;;;;;6.34;100.00;101129.59;4853410;58;1143198;-70
2022/12/25 13:01:05;;;;;;;35.17;19.33;;;;;;;6.38;100.00;101116.70;4982476;56;1143081;-66
2022/12/25 13:06:30;;;;;;;42.80;24.23;;;;;;;6.34;100.00;101099.39;5056511;56;1143003;-71
2022/12/25 13:11:41;;;;;;;511.67;201.53;;;;;;;6.33;100.00;101097.23;5026631;56;1140845;-65
2022/12/25 13:16:51;;;;;;;520.63;310.70;;;;;;;6.32;100.00;101088.11;5070965;55;1147520;-70
2022/12/25 13:22:05;;;;;;;102.83;57.60;;;;;;;6.28;100.00;101082.15;5098838;55;1147064;-67
2022/12/25 13:27:28;;;;;;;35.00;19.73;;;;;;;6.30;100.00;101080.30;4937665;57;1145118;-67
2022/12/25 13:32:35;;;;;;;118.35;77.95;;;;;;;6.34;100.00;101079.23;4987928;57;1143099;-64
2022/12/25 13:37:41;;;;;;;43.60;21.30;;;;;;;6.33;100.00;101074.89;4902054;58;1145276;-67
2022/12/25 13:42:48;;;;;;;55.40;23.60;;;;;;;6.31;100.00;101097.77;4977041;57;1143086;-68
2022/12/25 13:47:54;;;;;;;48.17;22.77;;;;;;;6.25;100.00;101086.73;4975319;57;1140796;-69
2022/12/25 13:53:17;;;;;;;56.57;24.90;;;;;;;6.26;100.00;101088.44;4955132;58;1143023;-68
2022/12/25 13:58:30;;;;;;;67.27;28.17;;;;;;;6.27;100.00;101091.42;4959326;57;1142972;-67
2022/12/25 14:03:45;;;;;;;78.90;36.50;;;;;;;6.30;100.00;101088.64;4964358;57;1143117;-69
2022/12/25 14:08:53;;;;;;;52.40;24.67;;;;;;;6.28;100.00;101084.78;4983214;57;1142972;-68
2022/12/25 14:14:03;;;;;;;75.30;32.23;;;;;;;6.27;100.00;101084.39;4963913;57;1143119;-68
2022/12/25 14:19:28;;;;;;;43.67;18.70;;;;;;;6.27;100.00;101071.72;4963910;57;1143207;-67
2022/12/25 14:24:35;;;;;;;45.70;20.73;;;;;;;6.21;100.00;101074.22;4970653;57;1143303;-67
2022/12/25 14:29:44;;;;;;;104.17;45.13;;;;;;;6.19;100.00;101078.69;5084902;56;1142898;-68
2022/12/25 14:34:57;;;;;;;73.27;33.93;;;;;;;6.23;100.00;101092.52;5060437;56;1144901;-69
2022/12/25 14:40:24;;;;;;;68.83;30.00;;;;;;;6.21;100.00;101092.59;4978772;57;1143031;-66
2022/12/25 14:45:37;;;;;;;109.32;51.83;;;;;;;6.22;100.00;101111.84;5027513;56;1143015;-67
2022/12/25 14:51:02;;;;;;;34.60;17.23;;;;;;;6.23;100.00;101117.48;5136524;56;1145261;-68
2022/12/25 14:56:09;;;;;;;47.47;20.33;;;;;;;6.22;100.00;101116.62;4986830;56;1143002;-65
2022/12/25 15:01:28;;;;;;;55.20;23.55;;;;;;;6.21;100.00;101109.67;5013595;57;1143023;-65
2022/12/25 15:06:34;;;;;;;51.50;22.55;;;;;;;6.17;100.00;101090.19;5033371;57;1143028;-69
2022/12/25 15:11:40;;;;;;;55.97;22.57;;;;;;;6.13;100.00;101076.83;4951134;57;1142953;-69
2022/12/25 15:16:56;;;;;;;67.97;27.57;;;;;;;6.08;100.00;101074.91;4950496;58;1142906;-65
2022/12/25 15:22:03;;;;;;;64.53;32.03;;;;;;;6.06;100.00;101082.86;5016724;56;1142959;-70
2022/12/25 15:27:17;;;;;;;68.53;27.77;;;;;;;6.08;100.00;101081.02;5032537;56;1142979;-68
2022/12/25 15:32:24;;;;;;;74.44;30.48;;;;;;;6.00;100.00;101063.00;4945225;57;1143096;-66
2022/12/25 15:37:30;;;;;;;78.92;29.20;;;;;;;5.96;100.00;101073.26;5037154;56;1142957;-70
2022/12/25 15:42:36;;;;;;;79.87;32.35;;;;;;;5.91;100.00;101066.56;5111123;56;1143150;-68
2022/12/25 15:47:42;;;;;;;91.67;32.00;;;;;;;5.89;100.00;101054.81;5114713;56;1142884;-68
2022/12/25 15:52:48;;;;;;;89.00;34.10;;;;;;;5.86;100.00;101057.55;5089796;56;1142998;-65
2022/12/25 15:57:54;;;;;;;89.23;36.23;;;;;;;5.83;100.00;101066.89;5045427;57;1143144;-67
2022/12/25 16:03:00;;;;;;;122.23;43.47;;;;;;;5.84;100.00;101066.42;5113836;56;1143116;-67
2022/12/25 16:08:07;;;;;;;200.33;101.30;;;;;;;5.86;100.00;101068.05;5127466;56;1145279;-69
2022/12/25 16:13:15;;;;;;;84.57;34.00;;;;;;;5.88;100.00;101064.05;5141693;56;1147051;-66
2022/12/25 16:18:22;;;;;;;69.73;30.33;;;;;;;5.88;100.00;101062.30;5101240;56;1146545;-68
2022/12/25 16:23:28;;;;;;;74.97;29.63;;;;;;;5.88;100.00;101066.67;5119115;56;1142951;-69
2022/12/25 16:28:34;;;;;;;114.47;49.30;;;;;;;5.89;100.00;101082.38;5089736;56;1142978;-65
2022/12/25 16:33:40;;;;;;;76.53;29.90;;;;;;;5.92;100.00;101083.55;5002886;57;1145017;-69
2022/12/25 16:38:45;;;;;;;76.10;29.43;;;;;;;5.89;100.00;101080.22;5034573;56;1142988;-67
2022/12/25 16:43:51;;;;;;;85.03;35.13;;;;;;;5.89;100.00;101085.01;5064026;55;1142902;-69
2022/12/25 16:48:57;;;;;;;51.27;21.63;;;;;;;5.88;100.00;101071.92;5090573;56;1142909;-66
2022/12/25 16:54:03;;;;;;;78.93;28.03;;;;;;;5.87;100.00;101063.20;5111959;56;1143083;-64
2022/12/25 16:59:09;;;;;;;67.70;26.57;;;;;;;5.84;100.00;101052.84;5108553;56;1143142;-66
2022/12/25 17:04:15;;;;;;;70.20;28.87;;;;;;;5.78;100.00;101026.06;5151882;55;1143127;-67
2022/12/25 17:09:22;;;;;;;57.27;27.03;;;;;;;5.69;100.00;101025.19;5132016;55;1174700;-69
2022/12/25 17:14:28;;;;;;;60.92;25.20;;;;;;;5.66;100.00;101019.63;5131570;55;1142891;-65
2022/12/25 17:19:34;;;;;;;77.25;36.23;;;;;;;5.64;100.00;100995.27;5151161;55;1142983;-70
2022/12/25 17:24:40;;;;;;;142.27;61.90;;;;;;;5.65;100.00;100987.78;5129185;55;1143125;-68
2022/12/25 17:29:48;;;;;;;82.60;36.28;;;;;;;5.61;100.00;100977.04;5084841;56;1145210;-68
2022/12/25 17:34:54;;;;;;;74.03;33.40;;;;;;;5.57;100.00;100957.12;5060051;56;1143134;-66
2022/12/25 17:39:59;;;;;;;65.27;29.90;;;;;;;5.54;100.00;100953.33;4881661;58;1142861;-66
2022/12/25 17:45:06;;;;;;;62.13;32.17;;;;;;;5.54;100.00;100944.14;5013877;57;1142818;-70
2022/12/25 17:50:12;;;;;;;60.07;29.27;;;;;;;5.54;100.00;100948.08;4997564;56;1142949;-69
2022/12/25 17:55:17;;;;;;;66.85;29.85;;;;;;;5.56;100.00;100942.30;5118286;56;1143072;-68
2022/12/25 18:00:23;;;;;;;60.73;28.50;;;;;;;5.57;100.00;100944.85;5183692;55;1142897;-68
2022/12/25 18:05:29;;;;;;;58.63;31.13;;;;;;;5.59;100.00;100947.40;5184862;55;1148731;-68
2022/12/25 18:10:41;;;;;;;64.35;28.73;;;;;;;5.61;100.00;100949.48;5059469;55;1142988;-68
2022/12/25 18:15:47;;;;;;;74.37;29.87;;;;;;;5.64;100.00;100942.78;4994717;57;1143204;-66
2022/12/25 18:20:54;;;;;;;59.03;28.98;;;;;;;5.60;100.00;100939.91;4960608;57;1143075;-69
2022/12/25 18:26:06;;;;;;;61.87;29.97;;;;;;;5.63;100.00;100946.33;5098171;56;1143005;-68
2022/12/25 18:31:18;;;;;;;76.03;32.93;;;;;;;5.65;100.00;100947.92;5105156;56;1142820;-69
2022/12/25 18:36:27;;;;;;;72.23;34.57;;;;;;;5.66;100.00;100932.56;5014084;56;1142994;-66
2022/12/25 18:42:37;;;;;;;74.20;32.67;;;;;;;5.68;100.00;100916.75;4900786;58;1143108;-67
2022/12/25 18:46:40;;;;;;;73.90;32.20;;;;;;;5.70;100.00;100922.77;5086982;55;1143094;-65
2022/12/25 18:51:47;;;;;;;74.47;33.07;;;;;;;5.75;100.00;100904.17;5046557;56;1143123;-66
2022/12/25 18:56:53;;;;;;;85.90;33.37;;;;;;;5.79;100.00;100896.08;5052635;56;1142851;-67
2022/12/25 19:01:58;;;;;;;80.83;35.60;;;;;;;5.81;100.00;100880.22;5058010;55;1142832;-67
2022/12/25 19:07:04;;;;;;;80.80;34.57;;;;;;;5.78;100.00;100872.53;5058793;55;1142939;-70
2022/12/25 19:12:10;;;;;;;84.17;35.78;;;;;;;5.74;100.00;100849.98;5132007;55;1143020;-68
2022/12/25 19:17:17;;;;;;;85.30;38.50;;;;;;;5.72;100.00;100848.75;5152094;55;1143081;-66
2022/12/25 19:22:23;;;;;;;80.73;35.17;;;;;;;5.73;100.00;100833.86;5132107;55;1143116;-70
2022/12/25 19:27:29;;;;;;;83.70;38.17;;;;;;;5.75;100.00;100832.86;5131868;55;1142950;-66
2022/12/25 19:32:35;;;;;;;77.97;34.60;;;;;;;5.77;100.00;100824.44;5132317;55;1142904;-69
2022/12/25 19:37:41;;;;;;;77.80;35.68;;;;;;;5.80;100.00;100791.94;5054855;55;1143025;-67
2022/12/25 19:42:47;;;;;;;90.40;38.27;;;;;;;5.80;100.00;100789.31;5060557;56;1142965;-67
2022/12/25 19:47:52;;;;;;;82.33;35.43;;;;;;;5.78;100.00;100799.05;5103680;56;1143028;-68
2022/12/25 19:52:58;;;;;;;77.57;33.77;;;;;;;5.75;100.00;100769.88;5013030;57;1142989;-68
2022/12/25 19:58:04;;;;;;;75.03;35.30;;;;;;;5.76;100.00;100770.25;5031532;56;1143026;-69
2022/12/25 20:03:10;;;;;;;77.90;33.55;;;;;;;5.77;100.00;100760.61;5045243;56;1142985;-69
2022/12/25 20:08:18;;;;;;;81.33;32.93;;;;;;;5.79;100.00;100756.97;5099318;55;1142847;-67
2022/12/25 20:13:24;;;;;;;81.43;36.20;;;;;;;5.82;100.00;100754.16;5127447;55;1142948;-67
2022/12/25 20:18:30;;;;;;;75.50;34.80;;;;;;;5.84;100.00;100748.36;5101210;55;1142987;-68
2022/12/25 20:23:36;;;;;;;73.40;34.55;;;;;;;5.84;100.00;100734.39;5058356;56;1143012;-66
2022/12/25 20:28:42;;;;;;;78.50;33.10;;;;;;;5.87;100.00;100731.14;5025727;56;1143175;-68
2022/12/25 20:33:48;;;;;;;79.43;34.57;;;;;;;5.89;100.00;100716.66;5071444;56;1142979;-67
2022/12/25 20:38:56;;;;;;;80.30;33.80;;;;;;;5.91;100.00;100700.36;5122404;56;1142894;-70
2022/12/25 20:44:03;;;;;;;72.27;33.83;;;;;;;5.94;100.00;100695.80;5104437;55;1142955;-69
2022/12/25 20:49:08;;;;;;;72.23;31.90;;;;;;;5.98;100.00;100709.58;5077830;55;1143142;-67
2022/12/25 20:54:14;;;;;;;68.13;33.60;;;;;;;6.02;100.00;100722.92;5090498;55;1142985;-64
2022/12/25 20:59:19;;;;;;;79.70;36.90;;;;;;;6.02;100.00;100710.26;5085299;55;1143084;-69
2022/12/25 21:04:25;;;;;;;81.87;34.67;;;;;;;6.02;100.00;100713.73;5003231;56;1143108;-68
2022/12/25 21:09:31;;;;;;;69.43;33.80;;;;;;;6.02;100.00;100690.56;5036075;55;1143171;-70
2022/12/25 21:14:39;;;;;;;72.90;30.25;;;;;;;6.01;100.00;100664.78;5092079;55;1142877;-68
2022/12/25 21:19:44;;;;;;;63.40;30.37;;;;;;;6.00;100.00;100657.83;5049008;55;1143032;-68
2022/12/25 21:24:51;;;;;;;57.60;28.13;;;;;;;6.00;100.00;100656.52;5063459;56;1143034;-65
2022/12/25 21:29:57;;;;;;;62.93;28.20;;;;;;;6.03;100.00;100667.32;5065818;56;1143202;-66
2022/12/25 21:35:03;;;;;;;53.80;27.35;;;;;;;6.06;100.00;100663.22;5042524;55;1143042;-66
2022/12/25 21:40:10;;;;;;;62.80;30.10;;;;;;;6.05;100.00;100667.62;5023489;57;1143155;-71
2022/12/25 21:45:15;;;;;;;59.05;30.17;;;;;;;6.04;100.00;100665.08;4982284;57;1143182;-71
2022/12/25 21:55:57;;;;;;;51.37;27.27;;;;;;;5.97;100.00;100657.53;4931793;57;1143086;-67
2022/12/25 22:01:04;;;;;;;75.97;38.07;;;;;;;5.96;100.00;100646.66;4893521;57;1142879;-69
2022/12/25 22:22:25;;;;;;;50.48;24.60;;;;;;;5.91;100.00;100593.59;4962271;57;1143031;-67
2022/12/25 22:27:37;;;;;;;53.20;25.40;;;;;;;5.89;100.00;100568.36;4963154;57;1143126;-65
2022/12/25 22:32:43;;;;;;;48.50;26.10;;;;;;;5.87;100.00;100571.50;4962124;57;1143051;-67
2022/12/25 22:37:49;;;;;;;48.50;23.93;;;;;;;5.87;100.00;100563.16;4898691;58;1142967;-65
2022/12/25 22:42:56;;;;;;;55.63;25.43;;;;;;;5.88;100.00;100544.31;4972788;57;1142962;-69
2022/12/25 22:48:02;;;;;;;45.07;24.73;;;;;;;5.88;100.00;100537.33;4966336;57;1143222;-66
2022/12/25 22:53:07;;;;;;;48.17;22.20;;;;;;;5.89;100.00;100539.48;4967593;57;1143092;-70
2022/12/25 22:58:14;;;;;;;59.67;25.15;;;;;;;5.93;100.00;100541.85;4942010;58;1142913;-68
2022/12/25 23:03:19;;;;;;;48.30;22.77;;;;;;;5.93;100.00;100524.79;4973353;57;1142875;-66
2022/12/25 23:08:25;;;;;;;45.97;21.40;;;;;;;5.94;100.00;100506.80;4986069;56;1143013;-69
2022/12/25 23:29:42;;;;;;;47.37;21.27;;;;;;;5.92;100.00;100490.75;5022475;57;1143220;-67
2022/12/25 23:34:48;;;;;;;38.37;19.03;;;;;;;5.92;100.00;100472.38;5033336;57;1142885;-66
2022/12/25 23:39:54;;;;;;;45.75;20.95;;;;;;;5.91;100.00;100462.34;4964045;56;1142793;-69
2022/12/25 23:45:00;;;;;;;52.38;22.07;;;;;;;5.94;100.00;100456.08;5004573;56;1142829;-67
2022/12/25 23:50:07;;;;;;;45.77;21.83;;;;;;;5.97;100.00;100439.65;5106800;56;1143021;-69
2022/12/25 23:55:12;;;;;;;50.88;26.60;;;;;;;5.97;100.00;100409.92;5116227;56;1143091;-70
